createdAt,value
2018-07-07T00:03:59.370Z,78.20
2018-07-07T00:08:02.597Z,78.20
2018-07-07T00:12:05.805Z,78.50
2018-07-07T00:16:09.040Z,78.50
2018-07-07T00:20:12.334Z,78.00
2018-07-07T00:24:15.541Z,77.70
2018-07-07T00:28:18.756Z,78.20
2018-07-07T00:32:21.997Z,78.20
2018-07-07T00:40:28.200Z,79.00
2018-07-07T00:48:34.402Z,79.40
2018-07-07T00:56:40.576Z,79.10
2018-07-07T01:00:51.946Z,79.10
2018-07-07T01:04:55.466Z,79.10
2018-07-07T01:08:58.884Z,79.60
2018-07-07T01:13:02.104Z,79.20
2018-07-07T01:17:05.385Z,79.20
2018-07-07T01:21:08.616Z,78.90
2018-07-07T01:29:14.790Z,78.90
2018-07-07T01:33:18.016Z,78.00
2018-07-07T01:37:21.243Z,78.00
2018-07-07T01:41:24.478Z,78.00
2018-07-07T01:45:27.716Z,78.70
2018-07-07T01:49:30.971Z,78.80
2018-07-07T01:53:34.184Z,78.30
2018-07-07T01:57:37.384Z,78.20
2018-07-07T02:01:40.749Z,77.80
2018-07-07T02:05:44.791Z,77.60
2018-07-07T02:13:50.957Z,77.10
2018-07-07T02:17:54.180Z,77.60
2018-07-07T02:26:00.346Z,77.90
2018-07-07T02:30:03.581Z,77.80
2018-07-07T02:34:06.806Z,77.80
2018-07-07T02:42:13.008Z,78.10
2018-07-07T02:46:16.293Z,78.00
2018-07-07T02:50:19.453Z,77.60
2018-07-07T02:58:25.621Z,77.50
2018-07-07T03:02:28.837Z,77.60
2018-07-07T03:06:32.049Z,77.30
2018-07-07T03:10:35.384Z,76.80
2018-07-07T03:14:38.593Z,76.50
2018-07-07T03:18:41.833Z,75.90
2018-07-07T03:22:45.765Z,75.70
2018-07-07T03:26:48.993Z,76.70
2018-07-07T03:30:53.653Z,76.60
2018-07-07T03:38:59.901Z,76.20
2018-07-07T03:47:06.068Z,76.10
2018-07-07T03:51:09.307Z,76.60
2018-07-07T03:59:15.468Z,76.50
2018-07-07T04:03:18.689Z,74.20
2018-07-07T04:07:21.961Z,71.00
2018-07-07T04:11:25.118Z,71.10
2018-07-07T04:19:31.368Z,73.10
2018-07-07T04:23:35.120Z,74.80
2018-07-07T04:27:38.344Z,74.70
2018-07-07T04:31:41.590Z,73.80
2018-07-07T04:35:44.836Z,73.80
2018-07-07T04:39:48.041Z,71.20
2018-07-07T04:43:51.384Z,71.80
2018-07-07T04:47:54.617Z,73.70
2018-07-07T04:51:57.870Z,74.10
2018-07-07T05:00:04.354Z,71.60
2018-07-07T05:04:07.578Z,71.40
2018-07-07T05:12:13.802Z,73.00
2018-07-07T05:16:17.009Z,72.50
2018-07-07T05:20:20.214Z,72.50
2018-07-07T05:24:23.453Z,72.30
2018-07-07T05:28:26.666Z,72.10
2018-07-07T05:32:29.967Z,71.30
2018-07-07T05:36:33.180Z,69.20
2018-07-07T05:40:36.501Z,67.10
2018-07-07T05:44:39.732Z,65.60
2018-07-07T05:48:42.968Z,66.10
2018-07-07T05:52:46.204Z,65.50
2018-07-07T05:56:49.428Z,64.90
2018-07-07T06:00:52.650Z,65.30
2018-07-07T06:04:55.860Z,63.90
2018-07-07T06:13:02.037Z,61.30
2018-07-07T06:17:05.401Z,61.60
2018-07-07T06:21:08.637Z,60.70
2018-07-07T06:25:11.852Z,58.50
2018-07-07T06:29:15.105Z,58.30
2018-07-07T06:33:18.357Z,57.50
2018-07-07T06:37:21.637Z,57.10
2018-07-07T06:41:24.809Z,57.20
2018-07-07T06:45:28.031Z,56.10
2018-07-07T06:49:31.295Z,56.40
2018-07-07T06:57:37.513Z,54.70
2018-07-07T07:01:40.903Z,54.80
2018-07-07T07:09:47.090Z,53.20
2018-07-07T07:13:50.319Z,53.40
2018-07-07T07:17:53.532Z,53.20
2018-07-07T07:21:56.757Z,50.60
2018-07-07T07:26:00.029Z,49.00
2018-07-07T07:30:03.197Z,50.00
2018-07-07T07:34:06.441Z,47.90
2018-07-07T07:38:09.667Z,45.00
2018-07-07T07:42:12.900Z,46.10
2018-07-07T07:46:16.134Z,43.80
2018-07-07T07:54:22.446Z,44.20
2018-07-07T08:02:28.663Z,44.90
2018-07-07T08:06:31.877Z,43.50
2018-07-07T08:10:35.108Z,43.30
2018-07-07T08:14:38.348Z,42.20
2018-07-07T08:18:41.629Z,43.90
2018-07-07T08:22:44.856Z,41.50
2018-07-07T08:26:48.126Z,40.80
2018-07-07T08:30:51.378Z,40.00
2018-07-07T08:34:55.065Z,40.50
2018-07-07T08:38:58.296Z,41.60
2018-07-07T08:47:04.482Z,40.00
2018-07-07T08:51:07.717Z,39.90
2018-07-07T08:55:10.924Z,40.50
2018-07-07T08:59:14.179Z,39.60
2018-07-07T09:03:17.401Z,39.90
2018-07-07T09:11:23.623Z,38.30
2018-07-07T09:15:27.293Z,38.40
2018-07-07T09:19:30.523Z,38.70
2018-07-07T09:23:33.757Z,39.40
2018-07-07T09:27:36.969Z,39.10
2018-07-07T09:31:40.205Z,39.00
2018-07-07T09:35:43.441Z,37.10
2018-07-07T09:39:46.668Z,37.50
2018-07-07T09:43:50.241Z,38.10
2018-07-07T09:47:53.470Z,37.40
2018-07-07T09:55:59.692Z,37.40
2018-07-07T10:00:02.952Z,38.90
2018-07-07T10:04:06.172Z,37.60
2018-07-07T10:12:12.798Z,33.60
2018-07-07T10:16:16.032Z,35.20
2018-07-07T10:20:19.258Z,35.30
2018-07-07T10:24:22.490Z,35.40
2018-07-07T10:28:25.740Z,35.40
2018-07-07T10:32:28.968Z,36.10
2018-07-07T10:36:32.188Z,35.80
2018-07-07T10:40:35.412Z,35.10
2018-07-07T10:48:41.601Z,35.30
2018-07-07T10:52:44.833Z,35.20
2018-07-07T10:56:48.048Z,32.50
2018-07-07T11:00:51.297Z,30.60
2018-07-07T11:04:54.524Z,29.30
2018-07-07T11:13:00.730Z,27.10
2018-07-07T11:17:03.966Z,26.20
2018-07-07T11:21:07.185Z,25.00
2018-07-07T11:25:10.419Z,27.40
2018-07-07T11:29:13.625Z,27.10
2018-07-07T11:33:16.852Z,27.60
2018-07-07T11:41:23.638Z,25.80
2018-07-07T11:45:26.866Z,26.30
2018-07-07T11:49:30.085Z,26.10
2018-07-07T11:53:33.337Z,24.80
2018-07-07T11:57:36.566Z,25.20
2018-07-07T12:01:39.801Z,25.90
2018-07-07T12:05:43.034Z,25.50
2018-07-07T12:09:46.282Z,24.70
2018-07-07T12:13:49.838Z,24.80
2018-07-07T12:17:53.061Z,24.70
2018-07-07T12:21:56.307Z,24.80
2018-07-07T12:25:59.537Z,23.80
2018-07-07T12:30:02.765Z,25.50
2018-07-07T12:34:06.193Z,27.30
2018-07-07T12:38:09.409Z,26.60
2018-07-07T12:42:12.641Z,24.50
2018-07-07T12:46:15.856Z,24.60
2018-07-07T12:50:19.084Z,24.60
2018-07-07T12:54:22.314Z,26.30
2018-07-07T12:58:25.542Z,25.80
2018-07-07T13:02:28.781Z,27.20
2018-07-07T13:06:32.001Z,26.20
2018-07-07T13:10:35.260Z,26.40
2018-07-07T13:14:38.486Z,28.20
2018-07-07T13:18:41.733Z,25.70
2018-07-07T13:22:44.955Z,26.00
2018-07-07T13:26:48.270Z,25.10
2018-07-07T13:34:54.405Z,25.70
2018-07-07T13:38:57.631Z,26.30
2018-07-07T13:43:00.832Z,26.00
2018-07-07T13:47:04.169Z,25.80
2018-07-07T13:51:07.408Z,26.50
2018-07-07T13:59:13.645Z,26.60
2018-07-07T14:03:16.866Z,27.60
2018-07-07T14:07:20.105Z,26.40
2018-07-07T14:11:23.349Z,25.80
2018-07-07T14:15:26.577Z,25.60
2018-07-07T14:19:29.838Z,26.00
2018-07-07T14:27:36.005Z,26.70
2018-07-07T14:31:39.242Z,25.80
2018-07-07T14:39:53.309Z,27.60
2018-07-07T14:44:00.891Z,27.10
2018-07-07T14:48:04.890Z,26.40
2018-07-07T14:52:08.133Z,26.70
2018-07-07T14:56:11.452Z,26.30
2018-07-07T15:04:20.846Z,28.90
2018-07-07T15:12:27.017Z,27.00
2018-07-07T15:16:30.240Z,27.00
2018-07-07T15:24:36.453Z,26.80
2018-07-07T15:32:42.638Z,28.10
2018-07-07T15:36:45.858Z,28.30
2018-07-07T15:40:49.100Z,27.90
2018-07-07T15:44:52.349Z,27.90
2018-07-07T15:48:55.570Z,28.20
2018-07-07T15:52:58.833Z,29.00
2018-07-07T15:57:02.071Z,28.00
2018-07-07T16:05:08.281Z,29.20
2018-07-07T16:09:11.506Z,29.40
2018-07-07T16:13:14.736Z,30.40
2018-07-07T16:17:17.962Z,29.00
2018-07-07T16:21:21.198Z,29.50
2018-07-07T16:25:24.429Z,29.10
2018-07-07T16:29:27.685Z,29.30
2018-07-07T16:33:30.905Z,28.60
2018-07-07T16:41:37.200Z,29.00
2018-07-07T16:49:43.506Z,28.00
2018-07-07T16:57:50.477Z,28.40
2018-07-07T17:01:53.760Z,28.10
2018-07-07T17:05:57.036Z,28.70
2018-07-07T17:14:03.277Z,29.40
2018-07-07T17:18:06.573Z,29.40
2018-07-07T17:22:09.816Z,29.90
2018-07-07T17:26:13.475Z,29.40
2018-07-07T17:34:19.921Z,29.50
2018-07-07T17:38:23.219Z,29.80
2018-07-07T17:42:26.496Z,30.30
2018-07-07T17:46:29.713Z,30.00
2018-07-07T17:50:32.946Z,29.50
2018-07-07T17:54:36.201Z,29.10
2018-07-07T18:02:42.426Z,29.00
2018-07-07T18:06:45.641Z,29.30
2018-07-07T18:10:48.869Z,29.50
2018-07-07T18:14:52.112Z,30.70
2018-07-07T18:18:55.340Z,30.90
2018-07-07T18:22:58.569Z,30.90
2018-07-07T18:27:02.096Z,31.00
2018-07-07T18:31:05.356Z,30.80
2018-07-07T18:35:08.583Z,30.80
2018-07-07T18:39:11.797Z,31.40
2018-07-07T18:43:15.085Z,31.40
2018-07-07T18:47:18.313Z,31.80
2018-07-07T18:51:21.541Z,32.00
2018-07-07T18:55:24.753Z,33.20
2018-07-07T18:59:28.439Z,34.00
2018-07-07T19:03:31.677Z,34.00
2018-07-07T19:07:34.928Z,34.70
2018-07-07T19:11:38.350Z,35.10
2018-07-07T19:15:45.354Z,35.40
2018-07-07T19:19:48.598Z,35.70
2018-07-07T19:23:57.152Z,36.10
2018-07-07T19:28:00.397Z,36.30
2018-07-07T19:32:08.900Z,36.50
2018-07-07T19:36:17.538Z,36.80
2018-07-07T19:40:20.764Z,37.30
2018-07-07T19:44:24.668Z,37.60
2018-07-07T19:48:27.894Z,38.00
2018-07-07T19:52:31.155Z,38.10
2018-07-07T19:56:34.442Z,38.30
2018-07-07T20:00:37.689Z,38.40
2018-07-07T20:04:40.917Z,38.60
2018-07-07T20:08:44.142Z,38.70
2018-07-07T20:17:11.192Z,39.30
2018-07-07T20:21:57.837Z,39.80
2018-07-07T20:26:01.820Z,40.50
2018-07-07T20:30:05.086Z,41.20
2018-07-07T20:34:08.309Z,41.80
2018-07-07T20:38:11.678Z,42.30
2018-07-07T20:46:17.853Z,43.10
2018-07-07T20:50:21.132Z,43.90
2018-07-07T20:54:24.379Z,44.30
2018-07-07T20:58:27.614Z,44.90
2018-07-07T21:02:30.828Z,45.40
2018-07-07T21:06:34.382Z,45.70
2018-07-07T21:10:37.668Z,46.20
2018-07-07T21:14:40.892Z,46.60
2018-07-07T21:18:44.126Z,47.00
2018-07-07T21:26:50.297Z,48.20
2018-07-07T21:30:53.549Z,48.70
2018-07-07T21:34:56.762Z,49.10
2018-07-07T21:38:59.982Z,49.70
2018-07-07T21:43:03.237Z,49.90
2018-07-07T21:51:09.408Z,50.80
2018-07-07T21:55:12.662Z,51.00
2018-07-07T21:59:17.760Z,51.30
2018-07-07T22:03:26.404Z,51.70
2018-07-07T22:07:34.917Z,52.00
2018-07-07T22:11:38.142Z,53.20
2018-07-07T22:15:41.360Z,53.30
2018-07-07T22:19:44.610Z,53.50
2018-07-07T22:23:47.912Z,54.10
2018-07-07T22:27:51.151Z,54.10
2018-07-07T22:31:55.199Z,54.70
2018-07-07T22:36:05.753Z,55.30
2018-07-07T22:40:08.995Z,55.80
2018-07-07T22:44:12.216Z,56.20
2018-07-07T22:48:15.441Z,56.50
2018-07-07T22:52:19.154Z,56.90
2018-07-07T22:56:22.364Z,57.20
2018-07-07T23:00:33.048Z,57.50
2018-07-07T23:04:36.295Z,58.10
2018-07-07T23:08:39.513Z,58.20
2018-07-07T23:12:42.936Z,58.50
2018-07-07T23:16:46.157Z,59.00
2018-07-07T23:20:49.374Z,59.00
2018-07-07T23:24:52.598Z,59.20
2018-07-07T23:28:55.820Z,59.60
2018-07-07T23:32:59.076Z,60.10
2018-07-07T23:37:02.302Z,60.30
2018-07-07T23:41:05.522Z,60.90
2018-07-07T23:45:10.056Z,61.40
2018-07-07T23:49:13.277Z,62.20
2018-07-07T23:53:16.533Z,62.50
2018-07-07T23:57:19.770Z,62.80
